Time;durP1;ratioP1;P1;durP2;ratioP2;P2;SDS_P1;SDS_P2;PMS_P1;PMS_P2;Temp;Humidity;BMP_temperature;BMP_pressure;BME280_temperature;BME280_humidity;BME280_pressure;Samples;Min_cycle;Max_cycle;Signal;HPM_P1;HPM_P2
2021/03/04 00:00:14;;;;;;;15.30;8.50;;;11.00;71.70;11.20;100452.00;;;;343586;28;96918;-90
2021/03/04 00:00:28;;;;;;;13.35;7.95;;;11.10;71.60;11.10;100454.00;;;;344160;28;83561;-91
2021/03/04 00:00:40;;;;;;;14.48;7.57;;;11.10;72.10;11.10;100453.00;;;;342278;28;96126;-91
2021/03/04 00:00:52;;;;;;;16.55;7.53;;;11.00;71.90;11.10;100458.00;;;;345720;28;85186;-90
2021/03/04 00:01:03;;;;;;;16.65;7.80;;;11.00;71.90;11.10;100459.00;;;;343465;28;97315;-90
2021/03/04 00:01:15;;;;;;;16.42;8.43;;;11.00;71.80;11.20;100453.00;;;;342910;28;84989;-90
2021/03/04 00:01:28;;;;;;;14.30;8.65;;;11.00;71.70;11.30;100460.00;;;;342097;28;97807;-90
2021/03/04 00:01:39;;;;;;;13.70;7.88;;;11.00;71.50;11.20;100448.00;;;;342849;28;85060;-91
2021/03/04 00:01:51;;;;;;;13.88;7.47;;;11.00;71.60;11.20;100448.00;;;;340877;28;96617;-90
2021/03/04 00:02:03;;;;;;;15.73;7.88;;;11.00;71.60;11.20;100445.00;;;;341390;28;84945;-91
2021/03/04 00:02:15;;;;;;;16.16;8.56;;;11.10;71.70;11.20;100451.00;;;;340948;28;96043;-89
2021/03/04 00:02:26;;;;;;;14.13;8.50;;;11.00;71.60;11.10;100449.00;;;;340999;28;85019;-91
2021/03/04 00:02:38;;;;;;;11.90;8.07;;;11.00;71.80;11.30;100456.00;;;;342217;28;97216;-91
2021/03/04 00:02:50;;;;;;;13.35;8.55;;;11.00;71.70;11.40;100450.00;;;;343013;28;84459;-90
2021/03/04 00:03:04;;;;;;;13.52;8.98;;;11.10;71.70;11.30;100445.00;;;;340835;28;94967;-91
2021/03/04 00:03:15;;;;;;;15.45;9.07;;;11.10;71.70;11.30;100446.00;;;;342910;28;85166;-91
2021/03/04 00:03:27;;;;;;;14.05;7.63;;;11.00;71.60;11.40;100450.00;;;;343953;28;95060;-91
2021/03/04 00:03:38;;;;;;;14.18;7.55;;;11.00;71.50;11.40;100456.00;;;;338855;28;84634;-91
2021/03/04 00:03:50;;;;;;;15.10;8.18;;;11.00;71.30;11.40;100451.00;;;;340882;28;93495;-90
2021/03/04 00:04:01;;;;;;;15.20;7.97;;;11.10;71.30;11.40;100448.00;;;;341539;28;84635;-90
2021/03/04 00:04:13;;;;;;;14.52;7.93;;;11.10;71.20;11.40;100452.00;;;;343586;28;96759;-90
2021/03/04 00:04:25;;;;;;;14.20;7.75;;;11.10;71.20;11.40;100451.00;;;;344230;28;83472;-90
2021/03/04 00:04:37;;;;;;;13.00;7.78;;;11.10;71.20;11.30;100449.00;;;;340841;28;97078;-92
2021/03/04 00:04:48;;;;;;;13.32;7.72;;;11.20;71.40;11.30;100454.00;;;;342903;28;84536;-91
2021/03/04 00:05:00;;;;;;;13.10;7.97;;;11.10;71.40;11.30;100452.00;;;;342174;28;95554;-90
2021/03/04 00:05:14;;;;;;;14.85;7.95;;;11.10;71.40;11.30;100451.00;;;;343968;28;85562;-91
2021/03/04 00:05:25;;;;;;;14.38;7.85;;;11.10;71.40;11.30;100451.00;;;;342559;28;97324;-90
2021/03/04 00:05:37;;;;;;;13.02;7.65;;;11.10;71.30;11.30;100450.00;;;;342038;28;85152;-90
2021/03/04 00:05:48;;;;;;;13.75;8.23;;;11.10;71.40;11.20;100453.00;;;;344890;28;96617;-90
2021/03/04 00:06:00;;;;;;;15.07;8.50;;;11.10;71.50;11.20;100447.00;;;;344272;28;84842;-91
2021/03/04 00:06:12;;;;;;;17.08;8.63;;;11.20;71.50;11.30;100446.00;;;;343649;28;96787;-90
2021/03/04 00:06:24;;;;;;;17.48;8.05;;;11.10;71.40;11.40;100445.00;;;;344170;28;84806;-91
2021/03/04 00:06:35;;;;;;;16.45;7.82;;;11.10;71.30;11.30;100443.00;;;;343600;28;96343;-90
2021/03/04 00:06:47;;;;;;;14.85;7.75;;;11.20;71.50;11.30;100445.00;;;;341555;28;84253;-91
2021/03/04 00:06:58;;;;;;;15.10;7.53;;;11.10;71.30;11.20;100453.00;;;;342144;28;96777;-92
2021/03/04 00:07:10;;;;;;;15.73;7.60;;;11.10;71.40;11.20;100458.00;;;;344216;28;83573;-91
2021/03/04 00:07:21;;;;;;;15.85;7.95;;;11.20;71.40;11.10;100442.00;;;;342172;28;96645;-90
2021/03/04 00:07:33;;;;;;;13.82;8.30;;;11.10;71.40;11.10;100446.00;;;;341678;28;83491;-90
2021/03/04 00:07:45;;;;;;;14.32;8.05;;;11.10;71.50;11.30;100446.00;;;;342125;28;95298;-92
2021/03/04 00:07:56;;;;;;;14.02;7.55;;;11.10;72.10;11.40;100451.00;;;;342889;28;84691;-91
2021/03/04 00:08:08;;;;;;;13.63;7.93;;;11.20;71.50;11.40;100440.00;;;;340866;28;95820;-91
2021/03/04 00:08:19;;;;;;;14.13;8.25;;;11.20;71.50;11.40;100441.00;;;;343972;28;84295;-90
2021/03/04 00:08:31;;;;;;;17.08;8.30;;;11.20;71.40;11.30;100446.00;;;;339356;28;96781;-90
2021/03/04 00:08:42;;;;;;;14.05;7.15;;;11.20;71.40;11.30;100441.00;;;;340008;28;84458;-91
2021/03/04 00:08:53;;;;;;;12.45;7.22;;;11.20;71.40;11.30;100449.00;;;;340856;28;93557;-92
2021/03/04 00:09:05;;;;;;;15.00;8.23;;;11.20;71.50;11.20;100451.00;;;;340090;28;83713;-91
2021/03/04 00:09:17;;;;;;;14.40;8.18;;;11.20;71.50;11.30;100449.00;;;;343480;28;97774;-91
2021/03/04 00:09:28;;;;;;;13.70;7.95;;;11.20;71.40;11.40;100449.00;;;;345617;28;84812;-91
2021/03/04 00:09:40;;;;;;;11.94;7.88;;;11.20;71.40;11.40;100449.00;;;;342176;28;96116;-90
2021/03/04 00:09:51;;;;;;;12.63;7.70;;;11.20;71.30;11.50;100446.00;;;;345477;28;84469;-91
2021/03/04 00:10:09;;;;;;;13.27;7.82;;;11.20;71.20;11.50;100444.00;;;;344748;28;97057;-90
2021/03/04 00:10:23;;;;;;;14.23;7.80;;;11.20;71.10;11.50;100447.00;;;;342742;28;84828;-91
2021/03/04 00:10:35;;;;;;;12.98;7.35;;;11.20;71.20;11.50;100446.00;;;;343578;28;96110;-91
2021/03/04 00:10:46;;;;;;;13.05;7.70;;;11.20;71.10;11.50;100443.00;;;;345553;28;83425;-93
2021/03/04 00:10:58;;;;;;;12.55;7.45;;;11.20;71.10;11.50;100448.00;;;;340804;28;94603;-91
2021/03/04 00:11:09;;;;;;;12.00;7.32;;;11.20;71.10;11.60;100453.00;;;;345522;28;83482;-91
2021/03/04 00:11:21;;;;;;;10.15;6.53;;;11.30;71.00;11.60;100441.00;;;;341746;28;96432;-91
2021/03/04 00:11:32;;;;;;;12.30;6.90;;;11.30;71.00;11.60;100444.00;;;;344201;28;84418;-90
2021/03/04 00:11:43;;;;;;;13.62;7.12;;;11.30;71.00;11.40;100441.00;;;;342194;28;96791;-91
2021/03/04 00:11:55;;;;;;;13.80;7.78;;;11.30;71.00;11.40;100449.00;;;;343265;28;84890;-90
2021/03/04 00:12:07;;;;;;;12.98;7.55;;;11.30;71.10;11.20;100450.00;;;;339551;28;96717;-90
2021/03/04 00:12:18;;;;;;;12.98;7.57;;;11.30;71.20;11.30;100440.00;;;;343051;28;82410;-91
2021/03/04 00:12:30;;;;;;;12.13;7.75;;;11.30;71.20;11.50;100446.00;;;;340781;28;94502;-90
2021/03/04 00:12:41;;;;;;;13.05;7.95;;;11.30;71.20;11.40;100450.00;;;;342997;28;83628;-90
2021/03/04 00:12:53;;;;;;;15.05;8.18;;;11.30;71.20;11.20;100441.00;;;;341957;28;95590;-90
2021/03/04 00:13:05;;;;;;;13.98;7.70;;;11.30;71.30;11.30;100445.00;;;;342816;28;85061;-90
2021/03/04 00:13:16;;;;;;;15.32;7.70;;;11.30;71.40;11.40;100445.00;;;;342190;28;96920;-90
2021/03/04 00:13:27;;;;;;;14.15;8.15;;;11.30;71.40;11.30;100446.00;;;;344288;28;84754;-90
2021/03/04 00:13:39;;;;;;;16.05;8.27;;;11.30;71.40;11.30;100438.00;;;;340769;28;95977;-90
2021/03/04 00:13:50;;;;;;;15.50;7.68;;;11.30;71.50;11.30;100439.00;;;;342862;28;83420;-91
2021/03/04 00:14:02;;;;;;;16.10;7.72;;;11.30;71.40;11.40;100452.00;;;;342285;28;94844;-90
2021/03/04 00:14:13;;;;;;;13.60;7.80;;;11.30;71.50;11.30;100438.00;;;;341508;28;84784;-92
2021/03/04 00:14:25;;;;;;;14.85;7.85;;;11.30;71.20;11.20;100445.00;;;;342590;28;94351;-91
2021/03/04 00:14:36;;;;;;;12.43;7.57;;;11.30;71.30;11.10;100449.00;;;;341519;28;83403;-91
2021/03/04 00:14:48;;;;;;;12.15;7.68;;;11.20;71.30;11.10;100445.00;;;;342214;28;96899;-90
2021/03/04 00:15:00;;;;;;;13.60;8.13;;;11.20;71.40;11.00;100449.00;;;;341551;28;83432;-90
2021/03/04 00:15:28;;;;;;;11.82;7.93;;;11.20;71.60;11.40;100446.00;;;;344189;28;98414;-91
2021/03/04 00:15:41;;;;;;;10.50;7.50;;;11.20;71.20;11.30;100444.00;;;;342811;28;85105;-91
2021/03/04 00:15:54;;;;;;;13.70;7.70;;;11.30;71.30;11.10;100448.00;;;;341955;28;95789;-92
2021/03/04 00:16:05;;;;;;;14.35;8.32;;;11.20;71.40;11.00;100440.00;;;;342933;28;83565;-90
2021/03/04 00:16:17;;;;;;;14.07;8.80;;;11.20;71.50;11.10;100442.00;;;;343569;28;94892;-91
2021/03/04 00:16:29;;;;;;;13.75;8.77;;;11.20;71.60;11.00;100446.00;;;;346999;28;83507;-90
2021/03/04 00:16:41;;;;;;;13.43;8.50;;;11.20;71.70;10.90;100443.00;;;;342301;28;96860;-90
2021/03/04 00:16:53;;;;;;;14.00;8.63;;;11.10;71.70;10.90;100437.00;;;;341582;28;84365;-91
2021/03/04 00:17:04;;;;;;;12.35;7.82;;;11.10;71.70;11.20;100432.00;;;;343486;28;96696;-91
2021/03/04 00:17:16;;;;;;;10.88;7.28;;;11.10;71.60;11.30;100438.00;;;;344052;28;83866;-91
2021/03/04 00:17:28;;;;;;;12.15;7.93;;;11.10;71.60;11.40;100439.00;;;;341903;28;97838;-90
2021/03/04 00:17:40;;;;;;;16.75;8.88;;;11.20;71.60;11.30;100441.00;;;;342719;28;83531;-90
2021/03/04 00:17:51;;;;;;;16.55;8.82;;;11.20;71.50;11.40;100441.00;;;;343547;28;96568;-90
2021/03/04 00:18:03;;;;;;;13.05;7.53;;;11.20;71.40;11.40;100438.00;;;;342710;28;84460;-90
2021/03/04 00:18:16;;;;;;;10.80;7.55;;;11.20;71.30;11.20;100439.00;;;;343338;28;95578;-90
2021/03/04 00:18:27;;;;;;;12.68;7.96;;;11.20;71.40;11.20;100442.00;;;;343743;28;85051;-91
2021/03/04 00:18:39;;;;;;;12.65;8.27;;;11.20;71.60;11.20;100437.00;;;;343650;28;95184;-90
2021/03/04 00:18:50;;;;;;;13.18;8.27;;;11.20;71.60;11.20;100439.00;;;;341588;28;83327;-91
2021/03/04 00:19:02;;;;;;;12.70;8.05;;;11.20;71.60;11.10;100439.00;;;;342066;28;97289;-91
2021/03/04 00:19:13;;;;;;;12.82;7.68;;;11.20;71.60;11.20;100444.00;;;;342891;28;84491;-90
2021/03/04 00:19:25;;;;;;;12.57;7.47;;;11.20;72.00;11.10;100442.00;;;;340773;28;97714;-90
2021/03/04 00:19:36;;;;;;;12.35;7.03;;;11.20;71.70;11.10;100439.00;;;;344273;28;83909;-91
2021/03/04 00:19:48;;;;;;;13.68;7.55;;;11.20;71.70;11.20;100445.00;;;;342152;28;96486;-90
2021/03/04 00:19:59;;;;;;;13.02;7.38;;;11.20;71.50;11.10;100443.00;;;;342745;28;84010;-90
2021/03/04 00:20:33;;;;;;;14.15;7.68;;;11.10;71.60;11.30;100442.00;;;;343638;28;93381;-91
2021/03/04 00:20:45;;;;;;;10.77;7.53;;;11.10;71.40;11.30;100446.00;;;;341620;28;84690;-90
2021/03/04 00:20:56;;;;;;;11.15;7.68;;;11.10;71.40;11.20;100445.00;;;;341803;28;95675;-91
2021/03/04 00:21:08;;;;;;;12.85;8.10;;;11.20;71.60;11.20;100433.00;;;;344466;28;82460;-90
2021/03/04 00:21:19;;;;;;;13.88;8.32;;;11.20;71.70;11.20;100441.00;;;;341356;28;96976;-91
2021/03/04 00:21:31;;;;;;;14.07;8.05;;;11.10;71.80;11.20;100442.00;;;;342959;28;83354;-90
2021/03/04 00:21:42;;;;;;;15.27;8.20;;;11.10;71.60;11.30;100430.00;;;;343455;28;97499;-92
2021/03/04 00:21:54;;;;;;;16.10;8.10;;;11.10;71.50;11.30;100432.00;;;;341640;28;85158;-90
2021/03/04 00:22:05;;;;;;;19.98;8.52;;;11.10;71.40;11.30;100442.00;;;;342475;28;96709;-89
2021/03/04 00:22:17;;;;;;;19.77;8.35;;;11.10;71.30;11.20;100434.00;;;;342890;28;84228;-90
2021/03/04 00:22:28;;;;;;;14.77;7.93;;;11.20;71.50;11.20;100434.00;;;;342179;28;96506;-90
2021/03/04 00:22:40;;;;;;;13.05;7.35;;;11.10;71.50;11.20;100443.00;;;;345190;28;83540;-90
2021/03/04 00:22:51;;;;;;;11.20;7.60;;;11.10;71.60;11.10;100442.00;;;;342421;28;94076;-89
2021/03/04 00:23:03;;;;;;;13.13;7.88;;;11.10;71.60;11.30;100434.00;;;;342949;28;83533;-90
2021/03/04 00:23:14;;;;;;;13.93;8.32;;;11.20;72.20;11.30;100445.00;;;;341559;28;96820;-90
2021/03/04 00:23:26;;;;;;;10.50;7.70;;;11.10;71.60;11.30;100441.00;;;;343100;28;84586;-90
2021/03/04 00:23:37;;;;;;;11.15;7.57;;;11.10;71.70;11.30;100423.00;;;;341761;28;98090;-90
2021/03/04 00:23:48;;;;;;;12.15;7.38;;;11.20;71.70;11.30;100446.00;;;;342801;28;84369;-91
2021/03/04 00:24:00;;;;;;;13.63;7.45;;;11.10;71.70;11.20;100437.00;;;;340873;28;94665;-91
2021/03/04 00:24:11;;;;;;;12.27;7.50;;;11.10;71.90;11.20;100438.00;;;;341630;28;83348;-90
2021/03/04 00:24:23;;;;;;;12.77;8.38;;;11.10;71.70;11.30;100435.00;;;;340613;28;96957;-90
2021/03/04 00:24:34;;;;;;;15.60;8.30;;;11.10;71.50;11.20;100443.00;;;;344298;28;84884;-91
2021/03/04 00:24:45;;;;;;;16.08;7.78;;;11.10;71.80;11.20;100441.00;;;;344940;28;95922;-91
2021/03/04 00:24:57;;;;;;;15.48;7.53;;;11.10;71.70;11.20;100440.00;;;;345646;28;84412;-91
2021/03/04 00:25:09;;;;;;;13.40;8.15;;;11.10;71.80;11.10;100440.00;;;;341991;28;97171;-91
2021/03/04 00:25:22;;;;;;;13.38;9.13;;;11.10;71.90;11.10;100444.00;;;;340223;28;83724;-90
2021/03/04 00:25:35;;;;;;;14.77;9.15;;;11.10;71.90;11.30;100444.00;;;;340774;28;97443;-90
2021/03/04 00:25:46;;;;;;;13.68;8.02;;;11.10;71.70;11.30;100433.00;;;;344322;28;84706;-90
2021/03/04 00:25:58;;;;;;;13.50;7.85;;;11.10;71.70;11.20;100440.00;;;;343602;28;96824;-91
2021/03/04 00:26:10;;;;;;;11.93;7.57;;;11.10;72.20;11.20;100438.00;;;;341626;28;83380;-90
2021/03/04 00:26:21;;;;;;;12.50;7.95;;;11.10;72.10;11.20;100443.00;;;;341514;28;96899;-90
2021/03/04 00:26:33;;;;;;;11.27;7.93;;;11.10;72.10;11.00;100438.00;;;;343987;28;83676;-91
2021/03/04 00:26:45;;;;;;;10.88;8.13;;;11.10;72.20;10.90;100442.00;;;;339670;28;94534;-90
2021/03/04 00:26:56;;;;;;;13.02;8.65;;;11.00;72.20;11.00;100439.00;;;;340164;28;83536;-91
2021/03/04 00:27:08;;;;;;;14.68;8.65;;;11.10;72.20;11.00;100432.00;;;;340790;28;95779;-91
2021/03/04 00:27:19;;;;;;;15.80;8.50;;;11.00;72.10;11.10;100433.00;;;;341572;28;83353;-90
2021/03/04 00:27:30;;;;;;;16.10;8.07;;;11.00;72.10;11.10;100439.00;;;;340746;28;97837;-90
2021/03/04 00:27:42;;;;;;;16.08;8.23;;;11.10;72.20;11.20;100431.00;;;;344060;28;84775;-90
2021/03/04 00:27:53;;;;;;;13.73;7.97;;;11.10;72.00;11.10;100442.00;;;;342184;28;96846;-91
2021/03/04 00:28:05;;;;;;;12.05;7.82;;;11.00;71.90;11.00;100441.00;;;;341541;28;83688;-91
2021/03/04 00:28:16;;;;;;;13.60;8.00;;;11.10;72.00;11.00;100444.00;;;;340885;28;96003;-89
2021/03/04 00:28:28;;;;;;;13.57;7.93;;;11.00;72.00;10.90;100438.00;;;;342877;28;84962;-90
2021/03/04 00:28:39;;;;;;;13.73;8.20;;;11.00;72.00;10.80;100436.00;;;;342218;28;97051;-90
2021/03/04 00:28:50;;;;;;;11.00;8.18;;;11.00;72.10;10.80;100444.00;;;;341373;28;84123;-91
2021/03/04 00:29:03;;;;;;;12.25;8.27;;;11.00;72.20;10.90;100442.00;;;;341831;28;95052;-90
2021/03/04 00:29:14;;;;;;;12.48;8.05;;;11.00;72.30;10.80;100435.00;;;;342960;28;84939;-90
2021/03/04 00:29:26;;;;;;;14.38;8.48;;;11.00;72.30;10.90;100429.00;;;;342852;28;98566;-91
2021/03/04 00:29:37;;;;;;;13.55;8.38;;;11.00;72.30;11.00;100446.00;;;;343232;28;86237;-91
2021/03/04 00:29:48;;;;;;;13.07;8.20;;;11.00;72.10;11.00;100438.00;;;;343258;28;96445;-91
2021/03/04 00:30:00;;;;;;;11.70;7.90;;;11.00;72.00;10.90;100442.00;;;;341713;28;82422;-90
2021/03/04 00:30:14;;;;;;;13.57;8.25;;;11.00;72.10;10.70;100437.00;;;;342181;28;96756;-90
2021/03/04 00:30:25;;;;;;;13.95;8.35;;;11.00;72.20;10.90;100438.00;;;;341160;28;85353;-90
2021/03/04 00:30:37;;;;;;;11.43;7.97;;;11.00;72.40;10.80;100442.00;;;;343546;28;97530;-90
2021/03/04 00:30:48;;;;;;;12.02;7.60;;;11.00;72.50;10.90;100436.00;;;;342929;28;84888;-90
2021/03/04 00:31:00;;;;;;;12.27;7.60;;;11.00;72.40;11.10;100441.00;;;;342117;28;96954;-90
2021/03/04 00:31:12;;;;;;;12.18;8.10;;;11.00;72.30;11.20;100431.00;;;;341571;28;83383;-89
2021/03/04 00:31:24;;;;;;;13.20;8.48;;;11.00;72.30;11.10;100436.00;;;;343236;28;97087;-91
2021/03/04 00:31:35;;;;;;;12.55;8.95;;;11.00;72.20;11.00;100443.00;;;;344322;28;84474;-90
2021/03/04 00:31:47;;;;;;;11.52;8.43;;;11.00;72.60;11.00;100428.00;;;;342131;28;97251;-90
2021/03/04 00:31:58;;;;;;;10.20;7.72;;;11.00;72.70;11.00;100438.00;;;;342904;28;84790;-90
2021/03/04 00:32:10;;;;;;;11.93;7.53;;;11.00;72.70;11.00;100436.00;;;;342161;28;96615;-90
2021/03/04 00:32:22;;;;;;;14.32;8.13;;;10.90;72.30;11.10;100432.00;;;;341379;28;83485;-90
2021/03/04 00:32:33;;;;;;;15.18;8.25;;;11.00;72.20;11.00;100438.00;;;;341748;28;97083;-90
2021/03/04 00:32:45;;;;;;;14.93;7.93;;;11.00;72.20;11.10;100436.00;;;;341557;28;84363;-90
2021/03/04 00:32:57;;;;;;;14.80;8.23;;;10.90;72.20;11.00;100438.00;;;;342316;28;96286;-91
2021/03/04 00:33:08;;;;;;;14.30;8.18;;;10.90;72.50;11.00;100430.00;;;;341266;28;83458;-90
2021/03/04 00:33:20;;;;;;;14.70;8.13;;;10.90;72.40;11.00;100435.00;;;;340819;28;97665;-90
2021/03/04 00:33:31;;;;;;;14.00;7.72;;;10.90;72.40;11.10;100435.00;;;;341347;28;83904;-90
2021/03/04 00:33:43;;;;;;;13.30;7.88;;;10.90;72.40;11.10;100435.00;;;;342006;28;95533;-91
2021/03/04 00:33:54;;;;;;;12.48;7.90;;;10.90;72.40;11.00;100439.00;;;;345703;28;84794;-90
2021/03/04 00:34:06;;;;;;;12.45;8.02;;;11.00;72.30;10.90;100427.00;;;;343558;28;97175;-91
2021/03/04 00:34:18;;;;;;;13.52;7.78;;;11.00;72.50;10.90;100435.00;;;;341522;28;84612;-91
2021/03/04 00:34:29;;;;;;;13.60;8.05;;;10.90;72.50;10.90;100442.00;;;;340714;28;96992;-90
2021/03/04 00:34:40;;;;;;;11.95;8.13;;;11.00;72.70;10.80;100438.00;;;;342899;28;84024;-90
2021/03/04 00:34:52;;;;;;;11.23;8.60;;;10.90;72.70;10.80;100436.00;;;;342264;28;95967;-91
2021/03/04 00:35:05;;;;;;;12.48;8.35;;;10.90;72.80;10.80;100430.00;;;;341499;28;84420;-90
2021/03/04 00:35:16;;;;;;;12.35;8.32;;;10.90;72.90;10.80;100436.00;;;;342100;28;98212;-89
2021/03/04 00:35:28;;;;;;;12.15;7.80;;;10.90;72.80;10.80;100436.00;;;;343578;28;82546;-89
2021/03/04 00:35:39;;;;;;;11.63;7.38;;;10.90;73.10;10.90;100437.00;;;;341830;28;96292;-91
2021/03/04 00:35:51;;;;;;;12.18;7.82;;;10.90;73.00;11.00;100429.00;;;;344319;28;83926;-90
2021/03/04 00:36:02;;;;;;;12.27;8.10;;;10.90;72.70;10.90;100437.00;;;;340963;28;95996;-90
2021/03/04 00:36:14;;;;;;;12.73;8.30;;;10.90;72.90;11.00;100436.00;;;;341559;28;84435;-90
2021/03/04 00:36:25;;;;;;;11.43;8.07;;;10.90;72.80;10.90;100435.00;;;;342409;28;95729;-91
2021/03/04 00:36:42;;;;;;;11.77;7.65;;;10.90;72.80;10.80;100435.00;;;;342078;28;83931;-90
2021/03/04 00:36:54;;;;;;;12.15;7.78;;;10.90;72.80;10.60;100439.00;;;;343937;28;96011;-90
2021/03/04 00:37:05;;;;;;;13.82;8.05;;;10.90;73.00;10.50;100434.00;;;;343070;28;83286;-90
2021/03/04 00:37:17;;;;;;;15.68;8.50;;;10.90;73.30;10.60;100435.00;;;;340809;28;97894;-91
2021/03/04 00:37:29;;;;;;;17.52;8.98;;;10.80;73.30;10.60;100432.00;;;;341629;28;84398;-91
2021/03/04 00:37:40;;;;;;;16.15;8.80;;;10.80;73.20;10.60;100437.00;;;;340966;28;97067;-90
2021/03/04 00:37:52;;;;;;;15.90;9.00;;;10.80;73.10;10.60;100427.00;;;;343253;28;83491;-92
2021/03/04 00:38:04;;;;;;;13.48;8.40;;;10.80;73.20;10.70;100437.00;;;;342307;28;95545;-91
2021/03/04 00:38:16;;;;;;;13.30;7.97;;;10.80;73.20;10.70;100434.00;;;;343139;28;84412;-91
2021/03/04 00:38:27;;;;;;;15.32;8.13;;;10.80;73.50;10.70;100429.00;;;;341499;28;101097;-92
2021/03/04 00:38:38;;;;;;;20.20;8.88;;;10.80;73.40;10.70;100432.00;;;;342707;28;85404;-91
2021/03/04 00:38:50;;;;;;;19.95;8.88;;;10.80;73.40;10.60;100430.00;;;;342067;28;93407;-92
2021/03/04 00:39:04;;;;;;;13.20;8.13;;;10.80;73.50;10.60;100424.00;;;;341377;28;84901;-91
2021/03/04 00:39:15;;;;;;;10.35;7.45;;;10.70;73.40;10.60;100425.00;;;;340906;28;96608;-91
2021/03/04 00:39:27;;;;;;;10.25;7.25;;;10.70;73.40;10.60;100430.00;;;;343380;28;83789;-90
2021/03/04 00:39:38;;;;;;;12.27;8.10;;;10.70;73.40;10.70;100428.00;;;;342522;28;95157;-90
2021/03/04 00:39:51;;;;;;;14.50;8.60;;;10.70;73.30;10.60;100440.00;;;;341819;28;84621;-90
2021/03/04 00:40:08;;;;;;;15.95;8.73;;;10.70;73.50;10.60;100431.00;;;;344143;28;93587;-91
2021/03/04 00:40:21;;;;;;;15.18;8.45;;;10.70;73.60;10.70;100433.00;;;;340433;28;84819;-92
2021/03/04 00:40:32;;;;;;;15.20;8.88;;;10.70;73.60;10.70;100425.00;;;;342302;28;95281;-91
2021/03/04 00:40:44;;;;;;;13.23;8.75;;;10.70;73.50;10.50;100419.00;;;;343000;28;84358;-90
2021/03/04 00:40:55;;;;;;;12.20;8.55;;;10.70;73.40;10.50;100430.00;;;;342238;28;95979;-90
2021/03/04 00:41:07;;;;;;;10.18;7.78;;;10.70;73.30;10.70;100428.00;;;;341610;28;83903;-90
2021/03/04 00:41:18;;;;;;;10.95;7.85;;;10.60;73.30;10.70;100432.00;;;;342283;28;94742;-91
2021/03/04 00:41:30;;;;;;;12.70;8.40;;;10.70;73.50;10.70;100431.00;;;;344282;28;84416;-90
2021/03/04 00:41:41;;;;;;;13.77;8.63;;;10.70;73.40;10.70;100435.00;;;;344932;28;96165;-90
2021/03/04 00:41:53;;;;;;;16.85;9.18;;;10.70;73.50;10.70;100425.00;;;;344387;28;83474;-90
2021/03/04 00:42:06;;;;;;;21.10;9.35;;;10.70;73.60;10.60;100425.00;;;;343809;28;95079;-90
2021/03/04 00:42:18;;;;;;;18.55;8.80;;;10.70;73.70;10.60;100431.00;;;;342945;28;83949;-91
2021/03/04 00:42:29;;;;;;;16.58;8.35;;;10.60;73.80;10.60;100431.00;;;;341859;28;95696;-90
2021/03/04 00:42:41;;;;;;;14.85;8.18;;;10.60;73.80;10.60;100425.00;;;;342867;28;84627;-91
2021/03/04 00:42:53;;;;;;;15.10;8.30;;;10.60;74.00;10.70;100426.00;;;;340940;28;96827;-90
2021/03/04 00:43:05;;;;;;;14.65;8.20;;;10.60;73.70;10.60;100430.00;;;;344415;28;84423;-91
2021/03/04 00:43:16;;;;;;;13.45;8.20;;;10.60;74.00;10.70;100432.00;;;;343623;28;97795;-91
2021/03/04 00:43:28;;;;;;;13.13;7.97;;;10.60;73.90;10.90;100429.00;;;;341801;28;83507;-91
2021/03/04 00:43:39;;;;;;;14.80;8.75;;;10.60;73.70;10.90;100429.00;;;;342320;28;94519;-90
2021/03/04 00:43:51;;;;;;;16.48;9.68;;;10.60;73.90;10.80;100424.00;;;;341848;28;83699;-88
2021/03/04 00:44:04;;;;;;;15.50;9.45;;;10.60;74.10;10.70;100432.00;;;;342394;28;97098;-91
2021/03/04 00:44:16;;;;;;;16.38;9.00;;;10.60;73.80;10.70;100421.00;;;;344561;28;84555;-89
2021/03/04 00:44:27;;;;;;;16.70;8.20;;;10.60;73.60;10.70;100425.00;;;;343062;28;94539;-89
2021/03/04 00:44:39;;;;;;;16.90;8.13;;;10.70;73.70;10.80;100421.00;;;;344156;28;83484;-90
2021/03/04 00:44:50;;;;;;;14.55;8.30;;;10.60;74.10;10.80;100426.00;;;;342444;28;95569;-91
2021/03/04 00:45:22;;;;;;;16.92;8.50;;;10.60;73.90;10.60;100427.00;;;;343147;28;83644;-91
2021/03/04 00:45:49;;;;;;;15.68;9.35;;;10.70;73.90;10.50;100438.00;;;;342477;28;96107;-91
2021/03/04 00:46:02;;;;;;;15.52;9.60;;;10.60;73.90;10.50;100423.00;;;;344491;28;83963;-90
2021/03/04 00:46:13;;;;;;;14.27;9.20;;;10.70;74.10;10.50;100425.00;;;;342436;28;96105;-91
2021/03/04 00:46:25;;;;;;;13.05;9.20;;;10.60;74.10;10.50;100420.00;;;;344131;28;84023;-91
2021/03/04 00:46:38;;;;;;;15.50;9.65;;;10.60;74.40;10.50;100421.00;;;;342211;28;97577;-91
2021/03/04 00:46:50;;;;;;;17.63;9.70;;;10.60;74.10;10.60;100427.00;;;;343050;28;83524;-91
2021/03/04 00:47:03;;;;;;;15.02;8.55;;;10.60;73.90;10.70;100432.00;;;;344073;28;96816;-91
2021/03/04 00:47:15;;;;;;;14.05;8.27;;;10.60;73.70;10.70;100425.00;;;;344584;28;83567;-91
2021/03/04 00:47:26;;;;;;;12.52;7.97;;;10.60;73.50;10.70;100433.00;;;;341877;28;96175;-91
2021/03/04 00:47:38;;;;;;;13.70;8.55;;;10.70;73.50;10.80;100425.00;;;;345557;28;83656;-90
2021/03/04 00:47:50;;;;;;;13.57;8.63;;;10.60;73.40;10.80;100429.00;;;;343364;28;96790;-91
2021/03/04 00:48:03;;;;;;;12.93;8.50;;;10.70;73.40;10.80;100431.00;;;;341699;28;84767;-90
2021/03/04 00:48:15;;;;;;;13.57;7.97;;;10.60;73.40;10.80;100421.00;;;;346314;28;95771;-90
2021/03/04 00:48:27;;;;;;;13.70;8.23;;;10.70;73.60;10.80;100435.00;;;;343949;28;83552;-90
2021/03/04 00:48:39;;;;;;;12.85;8.00;;;10.70;73.70;10.80;100432.00;;;;343560;28;95046;-89
2021/03/04 00:48:50;;;;;;;11.23;7.65;;;10.70;73.70;10.90;100437.00;;;;344110;28;83692;-91
2021/03/04 00:49:02;;;;;;;12.52;7.88;;;10.70;73.80;10.90;100427.00;;;;341185;28;94548;-90
2021/03/04 00:49:14;;;;;;;14.25;8.05;;;10.70;73.80;10.80;100430.00;;;;344326;28;83427;-90
2021/03/04 00:49:25;;;;;;;16.77;8.65;;;10.70;73.80;10.80;100429.00;;;;346706;28;96675;-90
2021/03/04 00:49:37;;;;;;;15.02;9.40;;;10.70;74.70;10.80;100438.00;;;;343129;28;83928;-89
2021/03/04 00:49:48;;;;;;;13.50;9.15;;;10.70;74.10;10.90;100426.00;;;;343801;28;97584;-90
2021/03/04 00:50:00;;;;;;;14.45;9.05;;;10.70;74.20;10.80;100432.00;;;;343263;28;83971;-90
2021/03/04 00:50:12;;;;;;;14.40;8.98;;;10.70;74.50;10.80;100439.00;;;;342675;28;94433;-89
2021/03/04 00:50:24;;;;;;;14.30;8.93;;;10.70;74.40;10.70;100431.00;;;;346896;28;83585;-90
2021/03/04 00:50:37;;;;;;;13.85;8.32;;;10.70;74.30;10.70;100429.00;;;;345283;28;95798;-88
2021/03/04 00:50:48;;;;;;;12.32;7.90;;;10.60;74.10;10.80;100435.00;;;;344419;28;83516;-91
2021/03/04 00:51:00;;;;;;;14.27;8.68;;;10.60;74.00;10.80;100437.00;;;;343921;28;96668;-90
2021/03/04 00:51:12;;;;;;;17.20;9.00;;;10.60;74.00;10.70;100431.00;;;;344353;28;84503;-90
2021/03/04 00:51:23;;;;;;;18.98;9.07;;;10.60;74.10;10.70;100434.00;;;;342353;28;97115;-91
2021/03/04 00:51:35;;;;;;;16.65;8.90;;;10.60;75.10;10.60;100437.00;;;;344431;28;83568;-91
2021/03/04 00:51:46;;;;;;;16.45;9.20;;;10.60;74.40;10.70;100431.00;;;;343739;28;97248;-91
2021/03/04 00:51:58;;;;;;;14.00;8.82;;;10.60;74.30;10.70;100435.00;;;;344773;28;83473;-90
2021/03/04 00:52:09;;;;;;;14.77;8.95;;;10.60;74.10;10.80;100434.00;;;;344034;28;96902;-90
2021/03/04 00:52:22;;;;;;;14.57;8.82;;;10.60;73.90;11.00;100423.00;;;;345930;28;84774;-91
2021/03/04 00:52:34;;;;;;;15.15;8.90;;;10.60;74.30;10.90;100425.00;;;;344941;28;96586;-91
2021/03/04 00:52:45;;;;;;;15.88;9.15;;;10.70;74.30;10.90;100427.00;;;;342971;28;83254;-91
2021/03/04 00:52:56;;;;;;;15.65;9.75;;;10.70;74.20;10.80;100430.00;;;;340814;28;96137;-91
2021/03/04 00:53:08;;;;;;;16.63;10.05;;;10.70;74.20;10.80;100431.00;;;;345773;28;83323;-91